Goodland, Texas
Current Conditions -  °F | °C
As of 12:55 PM on Friday 24 Oct 2014 (Local Time) from KCVN Reporting Station
Clear Clear  
Wind Chill: 75°   Ceiling: Unl
Heat Index: 75°   Visibility: 10mi
Dew Point: 43°   Wind: 8mph
Humidity: 31%   Direction: 270°W
Pressure: 30.23"   Gusts: NA
Location:  34.1266°N, 102.525°W
Report Text: KCVN 241755Z AUTO 27007KT 10SM CLR 24/06 A3023 RMK AO1 10240 20080 54000
Loading
Personal Weather Stations






























Interactive Weather Map
Tropical Storm Tracking
New forecast layout! Learn more

10-Day Weather Forecast

Advertisements
Track Severe Weather on mobile